sensor_id;sensor_type;location;lat;lon;timestamp;temperature;humidity
75217;HTU21D;63800;51.972;5.682;2022-11-20T00:00:38;-2.15;77.02
75217;HTU21D;63800;51.972;5.682;2022-11-20T00:03:03;-2.36;77.89
75217;HTU21D;63800;51.972;5.682;2022-11-20T00:05:29;-2.08;76.08
75217;HTU21D;63800;51.972;5.682;2022-11-20T00:07:57;-1.98;76.43
75217;HTU21D;63800;51.972;5.682;2022-11-20T00:10:22;-1.95;75.97
75217;HTU21D;63800;51.972;5.682;2022-11-20T00:12:47;-1.98;76.50
75217;HTU21D;63800;51.972;5.682;2022-11-20T00:15:13;-1.99;76.45
75217;HTU21D;63800;51.972;5.682;2022-11-20T00:17:38;-2.04;78.04
75217;HTU21D;63800;51.972;5.682;2022-11-20T00:20:04;-2.18;78.35
75217;HTU21D;63800;51.972;5.682;2022-11-20T00:22:29;-2.14;78.26
75217;HTU21D;63800;51.972;5.682;2022-11-20T00:24:55;-2.06;78.22
75217;HTU21D;63800;51.972;5.682;2022-11-20T00:27:22;-2.08;78.74
75217;HTU21D;63800;51.972;5.682;2022-11-20T00:29:47;-2.19;78.92
75217;HTU21D;63800;51.972;5.682;2022-11-20T00:32:13;-2.20;76.93
75217;HTU21D;63800;51.972;5.682;2022-11-20T00:34:38;-2.16;76.73
75217;HTU21D;63800;51.972;5.682;2022-11-20T00:37:04;-2.41;78.34
75217;HTU21D;63800;51.972;5.682;2022-11-20T00:39:29;-2.29;77.28
75217;HTU21D;63800;51.972;5.682;2022-11-20T00:41:54;-2.45;77.91
75217;HTU21D;63800;51.972;5.682;2022-11-20T00:44:20;-2.34;77.62
75217;HTU21D;63800;51.972;5.682;2022-11-20T00:46:45;-2.28;77.07
75217;HTU21D;63800;51.972;5.682;2022-11-20T00:49:10;-2.22;77.85
75217;HTU21D;63800;51.972;5.682;2022-11-20T00:51:36;-2.30;78.54
75217;HTU21D;63800;51.972;5.682;2022-11-20T00:54:01;-2.19;78.73
75217;HTU21D;63800;51.972;5.682;2022-11-20T00:56:27;-2.33;79.21
75217;HTU21D;63800;51.972;5.682;2022-11-20T00:58:53;-2.19;77.20
75217;HTU21D;63800;51.972;5.682;2022-11-20T01:01:24;-2.38;77.44
75217;HTU21D;63800;51.972;5.682;2022-11-20T01:03:51;-2.81;79.14
75217;HTU21D;63800;51.972;5.682;2022-11-20T01:06:37;-2.53;77.89
75217;HTU21D;63800;51.972;5.682;2022-11-20T01:09:05;-2.90;78.99
75217;HTU21D;63800;51.972;5.682;2022-11-20T01:11:35;-2.93;80.02
75217;HTU21D;63800;51.972;5.682;2022-11-20T01:14:02;-2.81;79.88
75217;HTU21D;63800;51.972;5.682;2022-11-20T01:18:57;-2.73;79.98
75217;HTU21D;63800;51.972;5.682;2022-11-20T01:21:32;-2.80;79.85
75217;HTU21D;63800;51.972;5.682;2022-11-20T01:23:58;-2.74;79.97
75217;HTU21D;63800;51.972;5.682;2022-11-20T01:26:32;-2.71;79.73
75217;HTU21D;63800;51.972;5.682;2022-11-20T01:28:59;-2.63;79.53
75217;HTU21D;63800;51.972;5.682;2022-11-20T01:31:36;-2.74;79.77
75217;HTU21D;63800;51.972;5.682;2022-11-20T01:34:10;-2.78;79.83
75217;HTU21D;63800;51.972;5.682;2022-11-20T01:36:37;-2.53;78.67
75217;HTU21D;63800;51.972;5.682;2022-11-20T01:39:10;-2.47;77.82
75217;HTU21D;63800;51.972;5.682;2022-11-20T01:41:36;-2.47;78.87
75217;HTU21D;63800;51.972;5.682;2022-11-20T01:44:41;-2.52;79.16
75217;HTU21D;63800;51.972;5.682;2022-11-20T01:47:09;-2.56;78.70
75217;HTU21D;63800;51.972;5.682;2022-11-20T01:50:11;-2.38;78.53
75217;HTU21D;63800;51.972;5.682;2022-11-20T01:53:06;-2.51;79.55
75217;HTU21D;63800;51.972;5.682;2022-11-20T01:55:37;-2.50;79.66
75217;HTU21D;63800;51.972;5.682;2022-11-20T01:58:05;-2.45;79.14
75217;HTU21D;63800;51.972;5.682;2022-11-20T02:00:31;-2.65;79.52
75217;HTU21D;63800;51.972;5.682;2022-11-20T02:03:05;-2.52;78.92
75217;HTU21D;63800;51.972;5.682;2022-11-20T02:05:39;-2.62;80.36
75217;HTU21D;63800;51.972;5.682;2022-11-20T02:08:05;-2.73;79.75
75217;HTU21D;63800;51.972;5.682;2022-11-20T02:10:32;-2.82;78.99
75217;HTU21D;63800;51.972;5.682;2022-11-20T02:12:58;-2.81;78.44
75217;HTU21D;63800;51.972;5.682;2022-11-20T02:15:43;-2.86;78.14
75217;HTU21D;63800;51.972;5.682;2022-11-20T02:18:10;-2.73;78.46
75217;HTU21D;63800;51.972;5.682;2022-11-20T02:20:36;-2.89;78.82
75217;HTU21D;63800;51.972;5.682;2022-11-20T02:23:18;-2.94;79.04
75217;HTU21D;63800;51.972;5.682;2022-11-20T02:25:47;-2.78;78.03
75217;HTU21D;63800;51.972;5.682;2022-11-20T02:28:14;-2.79;78.86
75217;HTU21D;63800;51.972;5.682;2022-11-20T02:30:40;-3.08;80.37
75217;HTU21D;63800;51.972;5.682;2022-11-20T02:33:05;-3.22;81.36
75217;HTU21D;63800;51.972;5.682;2022-11-20T02:37:59;-3.01;79.49
75217;HTU21D;63800;51.972;5.682;2022-11-20T02:40:26;-3.24;81.13
75217;HTU21D;63800;51.972;5.682;2022-11-20T02:42:52;-3.33;81.27
75217;HTU21D;63800;51.972;5.682;2022-11-20T02:45:17;-3.40;81.14
75217;HTU21D;63800;51.972;5.682;2022-11-20T02:47:43;-3.19;80.43
75217;HTU21D;63800;51.972;5.682;2022-11-20T02:50:08;-3.39;81.21
75217;HTU21D;63800;51.972;5.682;2022-11-20T02:52:34;-3.31;79.65
75217;HTU21D;63800;51.972;5.682;2022-11-20T02:54:59;-3.22;79.07
75217;HTU21D;63800;51.972;5.682;2022-11-20T02:57:25;-3.34;78.83
75217;HTU21D;63800;51.972;5.682;2022-11-20T02:59:51;-3.53;80.71
75217;HTU21D;63800;51.972;5.682;2022-11-20T03:02:16;-3.42;80.11
75217;HTU21D;63800;51.972;5.682;2022-11-20T03:04:42;-3.18;79.17
75217;HTU21D;63800;51.972;5.682;2022-11-20T03:07:08;-3.00;78.65
75217;HTU21D;63800;51.972;5.682;2022-11-20T03:09:33;-2.97;79.08
75217;HTU21D;63800;51.972;5.682;2022-11-20T03:11:59;-3.08;79.91
75217;HTU21D;63800;51.972;5.682;2022-11-20T03:14:24;-3.20;80.67
75217;HTU21D;63800;51.972;5.682;2022-11-20T03:16:50;-3.12;79.80
75217;HTU21D;63800;51.972;5.682;2022-11-20T03:19:15;-3.21;80.21
75217;HTU21D;63800;51.972;5.682;2022-11-20T03:21:40;-3.15;80.65
75217;HTU21D;63800;51.972;5.682;2022-11-20T03:24:07;-3.03;80.02
75217;HTU21D;63800;51.972;5.682;2022-11-20T03:26:32;-3.16;78.91
75217;HTU21D;63800;51.972;5.682;2022-11-20T03:28:59;-3.19;79.60
75217;HTU21D;63800;51.972;5.682;2022-11-20T03:31:30;-2.84;78.21
75217;HTU21D;63800;51.972;5.682;2022-11-20T03:33:57;-2.84;77.89
75217;HTU21D;63800;51.972;5.682;2022-11-20T03:36:23;-2.97;79.33
75217;HTU21D;63800;51.972;5.682;2022-11-20T03:38:49;-3.10;80.19
75217;HTU21D;63800;51.972;5.682;2022-11-20T03:41:18;-3.06;79.72
75217;HTU21D;63800;51.972;5.682;2022-11-20T03:43:48;-3.13;80.35
75217;HTU21D;63800;51.972;5.682;2022-11-20T03:46:14;-3.00;80.17
75217;HTU21D;63800;51.972;5.682;2022-11-20T03:48:39;-2.96;80.81
75217;HTU21D;63800;51.972;5.682;2022-11-20T03:51:14;-3.27;80.37
75217;HTU21D;63800;51.972;5.682;2022-11-20T03:53:41;-3.32;79.17
75217;HTU21D;63800;51.972;5.682;2022-11-20T03:56:08;-3.35;79.11
75217;HTU21D;63800;51.972;5.682;2022-11-20T03:58:38;-3.64;80.14
75217;HTU21D;63800;51.972;5.682;2022-11-20T04:01:12;-3.57;80.36
75217;HTU21D;63800;51.972;5.682;2022-11-20T04:03:39;-3.60;80.69
75217;HTU21D;63800;51.972;5.682;2022-11-20T04:06:13;-3.69;80.88
75217;HTU21D;63800;51.972;5.682;2022-11-20T04:08:40;-3.62;80.64
75217;HTU21D;63800;51.972;5.682;2022-11-20T04:11:27;-3.49;80.65
75217;HTU21D;63800;51.972;5.682;2022-11-20T04:13:54;-3.37;79.62
75217;HTU21D;63800;51.972;5.682;2022-11-20T04:16:22;-3.27;79.87
75217;HTU21D;63800;51.972;5.682;2022-11-20T04:18:54;-3.21;79.75
75217;HTU21D;63800;51.972;5.682;2022-11-20T04:21:20;-3.25;80.96
75217;HTU21D;63800;51.972;5.682;2022-11-20T04:23:46;-3.26;80.85
75217;HTU21D;63800;51.972;5.682;2022-11-20T04:26:12;-3.40;80.59
75217;HTU21D;63800;51.972;5.682;2022-11-20T04:28:38;-3.33;79.29
75217;HTU21D;63800;51.972;5.682;2022-11-20T04:31:09;-3.25;78.77
75217;HTU21D;63800;51.972;5.682;2022-11-20T04:33:35;-3.53;79.99
75217;HTU21D;63800;51.972;5.682;2022-11-20T04:36:09;-3.75;79.89
75217;HTU21D;63800;51.972;5.682;2022-11-20T04:38:35;-3.84;80.37
75217;HTU21D;63800;51.972;5.682;2022-11-20T04:41:03;-3.98;80.73
75217;HTU21D;63800;51.972;5.682;2022-11-20T04:43:28;-4.02;81.68
75217;HTU21D;63800;51.972;5.682;2022-11-20T04:45:55;-3.76;80.27
75217;HTU21D;63800;51.972;5.682;2022-11-20T04:48:21;-3.94;82.01
75217;HTU21D;63800;51.972;5.682;2022-11-20T04:50:47;-3.70;80.85
75217;HTU21D;63800;51.972;5.682;2022-11-20T04:53:13;-3.85;82.45
75217;HTU21D;63800;51.972;5.682;2022-11-20T04:55:38;-3.76;82.19
75217;HTU21D;63800;51.972;5.682;2022-11-20T04:58:03;-3.87;82.07
75217;HTU21D;63800;51.972;5.682;2022-11-20T05:00:29;-3.85;80.91
75217;HTU21D;63800;51.972;5.682;2022-11-20T05:02:54;-3.79;80.85
75217;HTU21D;63800;51.972;5.682;2022-11-20T05:05:19;-3.86;81.36
75217;HTU21D;63800;51.972;5.682;2022-11-20T05:07:45;-3.81;81.46
75217;HTU21D;63800;51.972;5.682;2022-11-20T05:10:11;-3.85;81.49
75217;HTU21D;63800;51.972;5.682;2022-11-20T05:12:37;-3.82;82.23
75217;HTU21D;63800;51.972;5.682;2022-11-20T05:15:02;-3.62;80.36
75217;HTU21D;63800;51.972;5.682;2022-11-20T05:17:28;-3.54;81.12
75217;HTU21D;63800;51.972;5.682;2022-11-20T05:19:53;-3.51;80.65
75217;HTU21D;63800;51.972;5.682;2022-11-20T05:22:18;-3.45;80.99
75217;HTU21D;63800;51.972;5.682;2022-11-20T05:24:44;-3.36;80.49
75217;HTU21D;63800;51.972;5.682;2022-11-20T05:27:09;-3.35;81.33
75217;HTU21D;63800;51.972;5.682;2022-11-20T05:29:35;-3.63;82.07
75217;HTU21D;63800;51.972;5.682;2022-11-20T05:32:00;-3.68;81.14
75217;HTU21D;63800;51.972;5.682;2022-11-20T05:34:25;-3.82;80.69
75217;HTU21D;63800;51.972;5.682;2022-11-20T05:36:51;-3.76;80.05
75217;HTU21D;63800;51.972;5.682;2022-11-20T05:39:16;-3.70;80.25
75217;HTU21D;63800;51.972;5.682;2022-11-20T05:41:42;-3.69;80.62
75217;HTU21D;63800;51.972;5.682;2022-11-20T05:44:10;-3.72;80.93
75217;HTU21D;63800;51.972;5.682;2022-11-20T05:46:36;-3.84;80.28
75217;HTU21D;63800;51.972;5.682;2022-11-20T05:49:01;-3.79;79.99
75217;HTU21D;63800;51.972;5.682;2022-11-20T05:51:27;-3.87;80.84
75217;HTU21D;63800;51.972;5.682;2022-11-20T05:53:52;-3.89;81.09
75217;HTU21D;63800;51.972;5.682;2022-11-20T05:56:19;-3.97;82.15
75217;HTU21D;63800;51.972;5.682;2022-11-20T05:58:45;-3.87;81.46
75217;HTU21D;63800;51.972;5.682;2022-11-20T06:01:12;-3.79;82.23
75217;HTU21D;63800;51.972;5.682;2022-11-20T06:03:38;-3.64;81.38
75217;HTU21D;63800;51.972;5.682;2022-11-20T06:06:05;-3.67;80.90
75217;HTU21D;63800;51.972;5.682;2022-11-20T06:08:31;-3.62;80.65
75217;HTU21D;63800;51.972;5.682;2022-11-20T06:10:57;-3.75;81.02
75217;HTU21D;63800;51.972;5.682;2022-11-20T06:13:23;-3.64;80.09
75217;HTU21D;63800;51.972;5.682;2022-11-20T06:15:53;-3.53;80.32
75217;HTU21D;63800;51.972;5.682;2022-11-20T06:18:19;-3.49;79.51
75217;HTU21D;63800;51.972;5.682;2022-11-20T06:20:45;-3.60;80.30
75217;HTU21D;63800;51.972;5.682;2022-11-20T06:23:10;-3.64;81.17
75217;HTU21D;63800;51.972;5.682;2022-11-20T06:25:40;-3.52;80.27
75217;HTU21D;63800;51.972;5.682;2022-11-20T06:28:06;-3.55;81.16
75217;HTU21D;63800;51.972;5.682;2022-11-20T06:30:31;-3.39;79.74
75217;HTU21D;63800;51.972;5.682;2022-11-20T06:32:57;-3.51;80.81
75217;HTU21D;63800;51.972;5.682;2022-11-20T06:35:22;-3.54;80.84
75217;HTU21D;63800;51.972;5.682;2022-11-20T06:37:48;-3.45;80.55
75217;HTU21D;63800;51.972;5.682;2022-11-20T06:40:13;-3.63;80.65
75217;HTU21D;63800;51.972;5.682;2022-11-20T06:42:38;-3.92;80.46
75217;HTU21D;63800;51.972;5.682;2022-11-20T06:45:04;-3.83;80.30
75217;HTU21D;63800;51.972;5.682;2022-11-20T06:47:29;-3.83;80.71
75217;HTU21D;63800;51.972;5.682;2022-11-20T06:49:55;-3.64;80.70
75217;HTU21D;63800;51.972;5.682;2022-11-20T06:52:20;-3.92;81.91
75217;HTU21D;63800;51.972;5.682;2022-11-20T06:54:46;-4.07;82.42
75217;HTU21D;63800;51.972;5.682;2022-11-20T06:57:11;-3.94;82.13
75217;HTU21D;63800;51.972;5.682;2022-11-20T06:59:37;-3.77;81.56
75217;HTU21D;63800;51.972;5.682;2022-11-20T07:02:02;-3.91;82.58
75217;HTU21D;63800;51.972;5.682;2022-11-20T07:04:27;-3.58;80.70
75217;HTU21D;63800;51.972;5.682;2022-11-20T07:06:53;-3.55;80.30
75217;HTU21D;63800;51.972;5.682;2022-11-20T07:09:18;-3.77;82.50
75217;HTU21D;63800;51.972;5.682;2022-11-20T07:11:44;-3.78;82.64
75217;HTU21D;63800;51.972;5.682;2022-11-20T07:14:09;-3.67;81.15
75217;HTU21D;63800;51.972;5.682;2022-11-20T07:16:35;-3.72;81.88
75217;HTU21D;63800;51.972;5.682;2022-11-20T07:19:00;-3.69;79.76
75217;HTU21D;63800;51.972;5.682;2022-11-20T07:21:25;-3.86;81.39
75217;HTU21D;63800;51.972;5.682;2022-11-20T07:23:51;-3.64;79.53
75217;HTU21D;63800;51.972;5.682;2022-11-20T07:26:16;-3.84;81.43
75217;HTU21D;63800;51.972;5.682;2022-11-20T07:28:44;-3.66;81.27
75217;HTU21D;63800;51.972;5.682;2022-11-20T07:31:09;-3.70;82.33
75217;HTU21D;63800;51.972;5.682;2022-11-20T07:33:35;-3.53;81.67
75217;HTU21D;63800;51.972;5.682;2022-11-20T07:36:01;-3.60;82.54
75217;HTU21D;63800;51.972;5.682;2022-11-20T07:38:26;-3.45;81.55
75217;HTU21D;63800;51.972;5.682;2022-11-20T07:40:58;-3.39;81.49
75217;HTU21D;63800;51.972;5.682;2022-11-20T07:43:26;-3.26;81.59
75217;HTU21D;63800;51.972;5.682;2022-11-20T07:45:55;-3.32;82.02
75217;HTU21D;63800;51.972;5.682;2022-11-20T07:48:20;-3.12;82.58
75217;HTU21D;63800;51.972;5.682;2022-11-20T07:50:45;-2.96;81.30
75217;HTU21D;63800;51.972;5.682;2022-11-20T07:53:11;-2.87;81.55
75217;HTU21D;63800;51.972;5.682;2022-11-20T07:55:37;-2.78;82.49
75217;HTU21D;63800;51.972;5.682;2022-11-20T07:58:03;-2.69;81.99
75217;HTU21D;63800;51.972;5.682;2022-11-20T08:00:28;-2.61;81.66
75217;HTU21D;63800;51.972;5.682;2022-11-20T08:02:54;-2.46;81.62
75217;HTU21D;63800;51.972;5.682;2022-11-20T08:05:19;-2.42;82.12
75217;HTU21D;63800;51.972;5.682;2022-11-20T08:07:45;-2.32;81.78
75217;HTU21D;63800;51.972;5.682;2022-11-20T08:10:12;-2.33;81.99
75217;HTU21D;63800;51.972;5.682;2022-11-20T08:12:49;-2.29;82.11
75217;HTU21D;63800;51.972;5.682;2022-11-20T08:15:33;-2.29;82.62
75217;HTU21D;63800;51.972;5.682;2022-11-20T08:18:01;-2.21;82.89
75217;HTU21D;63800;51.972;5.682;2022-11-20T08:20:26;-2.08;82.35
75217;HTU21D;63800;51.972;5.682;2022-11-20T08:22:52;-1.97;82.19
75217;HTU21D;63800;51.972;5.682;2022-11-20T08:25:17;-1.88;82.03
75217;HTU21D;63800;51.972;5.682;2022-11-20T08:27:43;-1.78;82.22
75217;HTU21D;63800;51.972;5.682;2022-11-20T08:30:09;-1.75;83.15
75217;HTU21D;63800;51.972;5.682;2022-11-20T08:32:35;-1.56;83.12
75217;HTU21D;63800;51.972;5.682;2022-11-20T08:35:02;-1.50;82.67
75217;HTU21D;63800;51.972;5.682;2022-11-20T08:37:27;-1.25;81.36
75217;HTU21D;63800;51.972;5.682;2022-11-20T08:39:53;-1.19;82.32
75217;HTU21D;63800;51.972;5.682;2022-11-20T08:42:19;-1.15;81.28
75217;HTU21D;63800;51.972;5.682;2022-11-20T08:44:44;-1.11;82.39
75217;HTU21D;63800;51.972;5.682;2022-11-20T08:47:09;-0.86;80.62
75217;HTU21D;63800;51.972;5.682;2022-11-20T08:49:35;-0.72;80.04
75217;HTU21D;63800;51.972;5.682;2022-11-20T08:52:00;-0.67;80.64
75217;HTU21D;63800;51.972;5.682;2022-11-20T08:54:26;-0.79;80.95
75217;HTU21D;63800;51.972;5.682;2022-11-20T08:56:51;-0.80;82.28
75217;HTU21D;63800;51.972;5.682;2022-11-20T08:59:16;-0.82;81.78
75217;HTU21D;63800;51.972;5.682;2022-11-20T09:01:42;-0.54;80.45
75217;HTU21D;63800;51.972;5.682;2022-11-20T09:04:07;-0.65;81.02
75217;HTU21D;63800;51.972;5.682;2022-11-20T09:06:33;-0.67;81.87
75217;HTU21D;63800;51.972;5.682;2022-11-20T09:08:58;-0.62;82.18
75217;HTU21D;63800;51.972;5.682;2022-11-20T09:11:23;-0.34;80.34
75217;HTU21D;63800;51.972;5.682;2022-11-20T09:13:50;-0.27;79.75
75217;HTU21D;63800;51.972;5.682;2022-11-20T09:16:15;-0.29;80.55
75217;HTU21D;63800;51.972;5.682;2022-11-20T09:18:41;-0.47;81.14
75217;HTU21D;63800;51.972;5.682;2022-11-20T09:21:10;-0.56;80.84
75217;HTU21D;63800;51.972;5.682;2022-11-20T09:23:37;-0.50;82.10
75217;HTU21D;63800;51.972;5.682;2022-11-20T09:26:11;-0.84;82.55
75217;HTU21D;63800;51.972;5.682;2022-11-20T09:28:37;-0.44;80.46
75217;HTU21D;63800;51.972;5.682;2022-11-20T09:31:07;-0.36;80.85
75217;HTU21D;63800;51.972;5.682;2022-11-20T09:33:33;-0.32;80.84
75217;HTU21D;63800;51.972;5.682;2022-11-20T09:35:58;-0.10;79.98
75217;HTU21D;63800;51.972;5.682;2022-11-20T09:38:24;-0.00;80.37
75217;HTU21D;63800;51.972;5.682;2022-11-20T09:41:25;0.10;80.81
75217;HTU21D;63800;51.972;5.682;2022-11-20T09:46:43;0.02;80.73
75217;HTU21D;63800;51.972;5.682;2022-11-20T09:51:53;-0.03;80.54
75217;HTU21D;63800;51.972;5.682;2022-11-20T09:54:27;0.30;79.04
75217;HTU21D;63800;51.972;5.682;2022-11-20T09:57:03;0.36;80.25
75217;HTU21D;63800;51.972;5.682;2022-11-20T09:59:38;0.22;79.67
75217;HTU21D;63800;51.972;5.682;2022-11-20T10:02:34;0.25;81.59
75217;HTU21D;63800;51.972;5.682;2022-11-20T10:05:12;0.61;78.80
75217;HTU21D;63800;51.972;5.682;2022-11-20T10:10:18;0.83;77.84
75217;HTU21D;63800;51.972;5.682;2022-11-20T10:24:42;0.87;80.52
75217;HTU21D;63800;51.972;5.682;2022-11-20T10:27:37;1.27;78.37
75217;HTU21D;63800;51.972;5.682;2022-11-20T10:30:12;1.46;78.48
75217;HTU21D;63800;51.972;5.682;2022-11-20T10:32:42;1.48;78.59
75217;HTU21D;63800;51.972;5.682;2022-11-20T10:35:52;1.45;79.89
75217;HTU21D;63800;51.972;5.682;2022-11-20T10:38:22;1.54;80.42
75217;HTU21D;63800;51.972;5.682;2022-11-20T10:40:54;1.68;80.17
75217;HTU21D;63800;51.972;5.682;2022-11-20T10:43:42;1.56;80.70
75217;HTU21D;63800;51.972;5.682;2022-11-20T10:46:12;1.58;81.84
75217;HTU21D;63800;51.972;5.682;2022-11-20T10:48:43;1.78;80.52
75217;HTU21D;63800;51.972;5.682;2022-11-20T10:56:43;1.87;79.80
75217;HTU21D;63800;51.972;5.682;2022-11-20T11:01:48;1.76;80.32
75217;HTU21D;63800;51.972;5.682;2022-11-20T11:06:49;1.76;81.30
75217;HTU21D;63800;51.972;5.682;2022-11-20T11:09:23;1.76;80.59
75217;HTU21D;63800;51.972;5.682;2022-11-20T11:11:53;1.87;80.17
75217;HTU21D;63800;51.972;5.682;2022-11-20T11:14:18;2.13;79.10
75217;HTU21D;63800;51.972;5.682;2022-11-20T11:16:50;2.06;79.86
75217;HTU21D;63800;51.972;5.682;2022-11-20T11:19:16;2.13;79.68
75217;HTU21D;63800;51.972;5.682;2022-11-20T11:21:46;2.28;78.36
75217;HTU21D;63800;51.972;5.682;2022-11-20T11:24:26;2.32;78.61
75217;HTU21D;63800;51.972;5.682;2022-11-20T11:26:58;2.29;79.01
75217;HTU21D;63800;51.972;5.682;2022-11-20T11:29:24;2.19;79.73
75217;HTU21D;63800;51.972;5.682;2022-11-20T11:32:10;2.15;80.29
75217;HTU21D;63800;51.972;5.682;2022-11-20T11:34:36;2.32;79.30
75217;HTU21D;63800;51.972;5.682;2022-11-20T11:37:02;2.08;81.48
75217;HTU21D;63800;51.972;5.682;2022-11-20T11:39:32;2.26;79.49
75217;HTU21D;63800;51.972;5.682;2022-11-20T11:42:00;2.06;80.55
75217;HTU21D;63800;51.972;5.682;2022-11-20T11:44:29;2.27;80.29
75217;HTU21D;63800;51.972;5.682;2022-11-20T11:47:30;2.22;80.47
75217;HTU21D;63800;51.972;5.682;2022-11-20T11:58:20;2.22;79.94
75217;HTU21D;63800;51.972;5.682;2022-11-20T12:00:58;2.26;79.91
75217;HTU21D;63800;51.972;5.682;2022-11-20T12:03:36;2.06;81.14
75217;HTU21D;63800;51.972;5.682;2022-11-20T12:06:10;2.24;80.54
75217;HTU21D;63800;51.972;5.682;2022-11-20T12:11:12;2.46;80.14
75217;HTU21D;63800;51.972;5.682;2022-11-20T12:13:44;2.55;79.54
75217;HTU21D;63800;51.972;5.682;2022-11-20T12:16:14;2.56;80.43
75217;HTU21D;63800;51.972;5.682;2022-11-20T12:18:42;2.42;81.60
75217;HTU21D;63800;51.972;5.682;2022-11-20T12:26:39;2.52;81.35
75217;HTU21D;63800;51.972;5.682;2022-11-20T12:32:06;2.52;83.12
75217;HTU21D;63800;51.972;5.682;2022-11-20T12:35:10;2.57;82.52
75217;HTU21D;63800;51.972;5.682;2022-11-20T12:37:45;2.66;81.72
75217;HTU21D;63800;51.972;5.682;2022-11-20T12:40:39;2.64;81.77
75217;HTU21D;63800;51.972;5.682;2022-11-20T12:43:23;2.59;82.74
75217;HTU21D;63800;51.972;5.682;2022-11-20T12:48:46;2.49;82.94
75217;HTU21D;63800;51.972;5.682;2022-11-20T12:57:13;2.52;83.00
75217;HTU21D;63800;51.972;5.682;2022-11-20T13:02:50;2.45;83.49
75217;HTU21D;63800;51.972;5.682;2022-11-20T13:05:54;2.55;83.08
75217;HTU21D;63800;51.972;5.682;2022-11-20T13:08:23;2.49;83.26
75217;HTU21D;63800;51.972;5.682;2022-11-20T13:10:55;2.50;83.41
75217;HTU21D;63800;51.972;5.682;2022-11-20T13:13:43;2.41;83.43
75217;HTU21D;63800;51.972;5.682;2022-11-20T13:18:44;2.54;83.75
75217;HTU21D;63800;51.972;5.682;2022-11-20T13:21:17;2.55;83.57
75217;HTU21D;63800;51.972;5.682;2022-11-20T13:23:43;2.53;84.34
75217;HTU21D;63800;51.972;5.682;2022-11-20T13:26:22;2.56;84.64
75217;HTU21D;63800;51.972;5.682;2022-11-20T13:29:08;2.67;83.76
75217;HTU21D;63800;51.972;5.682;2022-11-20T13:31:36;2.65;84.26
75217;HTU21D;63800;51.972;5.682;2022-11-20T13:34:06;2.66;84.81
75217;HTU21D;63800;51.972;5.682;2022-11-20T13:36:32;2.64;83.87
75217;HTU21D;63800;51.972;5.682;2022-11-20T13:39:00;2.60;84.81
75217;HTU21D;63800;51.972;5.682;2022-11-20T13:41:29;2.69;84.45
75217;HTU21D;63800;51.972;5.682;2022-11-20T13:46:44;2.67;84.38
75217;HTU21D;63800;51.972;5.682;2022-11-20T13:49:18;2.72;84.29
75217;HTU21D;63800;51.972;5.682;2022-11-20T13:51:46;2.72;84.33
75217;HTU21D;63800;51.972;5.682;2022-11-20T14:02:30;2.53;84.61
75217;HTU21D;63800;51.972;5.682;2022-11-20T14:04:58;2.54;84.68
75217;HTU21D;63800;51.972;5.682;2022-11-20T14:07:36;2.54;84.84
75217;HTU21D;63800;51.972;5.682;2022-11-20T14:10:03;2.56;85.07
75217;HTU21D;63800;51.972;5.682;2022-11-20T14:12:31;2.49;85.49
75217;HTU21D;63800;51.972;5.682;2022-11-20T14:14:57;2.59;84.47
75217;HTU21D;63800;51.972;5.682;2022-11-20T14:17:34;2.57;85.03
75217;HTU21D;63800;51.972;5.682;2022-11-20T14:20:05;2.56;85.75
75217;HTU21D;63800;51.972;5.682;2022-11-20T14:22:31;2.62;85.31
75217;HTU21D;63800;51.972;5.682;2022-11-20T14:27:28;2.61;85.52
75217;HTU21D;63800;51.972;5.682;2022-11-20T14:29:53;2.50;86.78
75217;HTU21D;63800;51.972;5.682;2022-11-20T14:32:21;2.53;86.32
75217;HTU21D;63800;51.972;5.682;2022-11-20T14:34:51;2.51;86.38
75217;HTU21D;63800;51.972;5.682;2022-11-20T14:37:37;2.45;88.22
75217;HTU21D;63800;51.972;5.682;2022-11-20T14:40:21;2.51;87.20
75217;HTU21D;63800;51.972;5.682;2022-11-20T14:42:47;2.54;87.50
75217;HTU21D;63800;51.972;5.682;2022-11-20T14:45:13;2.60;86.95
75217;HTU21D;63800;51.972;5.682;2022-11-20T14:47:40;2.52;87.86
75217;HTU21D;63800;51.972;5.682;2022-11-20T14:50:13;2.57;87.77
75217;HTU21D;63800;51.972;5.682;2022-11-20T14:52:50;2.57;87.96
75217;HTU21D;63800;51.972;5.682;2022-11-20T14:55:53;2.62;87.93
75217;HTU21D;63800;51.972;5.682;2022-11-20T14:58:25;2.75;87.77
75217;HTU21D;63800;51.972;5.682;2022-11-20T15:01:06;2.74;87.55
75217;HTU21D;63800;51.972;5.682;2022-11-20T15:03:39;2.67;88.68
75217;HTU21D;63800;51.972;5.682;2022-11-20T15:06:06;2.71;87.67
75217;HTU21D;63800;51.972;5.682;2022-11-20T15:08:33;2.70;88.42
75217;HTU21D;63800;51.972;5.682;2022-11-20T15:10:59;2.68;89.03
75217;HTU21D;63800;51.972;5.682;2022-11-20T15:13:34;2.71;88.40
75217;HTU21D;63800;51.972;5.682;2022-11-20T15:16:02;2.76;88.25
75217;HTU21D;63800;51.972;5.682;2022-11-20T15:18:29;2.84;87.77
75217;HTU21D;63800;51.972;5.682;2022-11-20T15:20:57;2.86;87.40
75217;HTU21D;63800;51.972;5.682;2022-11-20T15:23:23;2.81;88.41
75217;HTU21D;63800;51.972;5.682;2022-11-20T15:25:49;2.76;89.02
75217;HTU21D;63800;51.972;5.682;2022-11-20T15:28:19;2.82;88.41
75217;HTU21D;63800;51.972;5.682;2022-11-20T15:30:48;2.88;88.08
75217;HTU21D;63800;51.972;5.682;2022-11-20T15:33:15;2.87;88.35
75217;HTU21D;63800;51.972;5.682;2022-11-20T15:35:41;2.89;88.18
75217;HTU21D;63800;51.972;5.682;2022-11-20T15:38:07;2.84;89.31
75217;HTU21D;63800;51.972;5.682;2022-11-20T15:40:32;2.86;88.89
75217;HTU21D;63800;51.972;5.682;2022-11-20T15:42:58;2.88;89.31
75217;HTU21D;63800;51.972;5.682;2022-11-20T15:45:47;2.93;87.94
75217;HTU21D;63800;51.972;5.682;2022-11-20T15:48:35;2.95;88.83
75217;HTU21D;63800;51.972;5.682;2022-11-20T15:51:07;2.86;89.60
75217;HTU21D;63800;51.972;5.682;2022-11-20T15:53:41;3.03;88.17
75217;HTU21D;63800;51.972;5.682;2022-11-20T15:56:13;3.08;88.20
75217;HTU21D;63800;51.972;5.682;2022-11-20T15:58:40;2.98;88.61
75217;HTU21D;63800;51.972;5.682;2022-11-20T16:01:10;3.01;88.89
75217;HTU21D;63800;51.972;5.682;2022-11-20T16:03:36;2.94;89.62
75217;HTU21D;63800;51.972;5.682;2022-11-20T16:06:02;3.08;88.57
75217;HTU21D;63800;51.972;5.682;2022-11-20T16:08:27;3.05;88.33
75217;HTU21D;63800;51.972;5.682;2022-11-20T16:10:53;3.09;89.21
75217;HTU21D;63800;51.972;5.682;2022-11-20T16:13:18;3.03;89.24
75217;HTU21D;63800;51.972;5.682;2022-11-20T16:16:07;3.11;88.70
75217;HTU21D;63800;51.972;5.682;2022-11-20T16:18:36;3.17;88.62
75217;HTU21D;63800;51.972;5.682;2022-11-20T16:21:02;3.10;89.32
75217;HTU21D;63800;51.972;5.682;2022-11-20T16:23:28;3.16;88.77
75217;HTU21D;63800;51.972;5.682;2022-11-20T16:25:53;3.16;88.99
75217;HTU21D;63800;51.972;5.682;2022-11-20T16:28:19;3.18;89.48
75217;HTU21D;63800;51.972;5.682;2022-11-20T16:30:45;3.21;89.59
75217;HTU21D;63800;51.972;5.682;2022-11-20T16:33:13;3.34;88.99
75217;HTU21D;63800;51.972;5.682;2022-11-20T16:35:38;3.35;88.80
75217;HTU21D;63800;51.972;5.682;2022-11-20T16:38:04;3.29;89.38
75217;HTU21D;63800;51.972;5.682;2022-11-20T16:40:29;3.28;89.25
75217;HTU21D;63800;51.972;5.682;2022-11-20T16:42:55;3.30;89.76
75217;HTU21D;63800;51.972;5.682;2022-11-20T16:45:20;3.24;90.04
75217;HTU21D;63800;51.972;5.682;2022-11-20T16:47:46;3.30;89.76
75217;HTU21D;63800;51.972;5.682;2022-11-20T16:50:11;3.35;89.67
75217;HTU21D;63800;51.972;5.682;2022-11-20T16:52:37;3.36;89.71
75217;HTU21D;63800;51.972;5.682;2022-11-20T16:55:03;3.39;89.47
75217;HTU21D;63800;51.972;5.682;2022-11-20T16:57:29;3.41;89.41